Time;durP1;ratioP1;P1;durP2;ratioP2;P2;SDS_P1;SDS_P2;PMS_P1;PMS_P2;Temp;Humidity;BMP_temperature;BMP_pressure;BME280_temperature;BME280_humidity;BME280_pressure;Samples;Min_cycle;Max_cycle;Signal;HPM_P1;HPM_P2
2022/12/02 00:00:03;;;;;;;23.23;14.00;;;;;;;2.69;100.00;98061.53;18303326;32;20390;-63
2022/12/02 00:10:29;;;;;;;27.70;16.07;;;;;;;2.67;100.00;98058.25;18302619;32;20062;-63
2022/12/02 00:20:32;;;;;;;29.50;15.88;;;;;;;2.64;100.00;98051.47;18302587;32;20066;-63
2022/12/02 00:30:34;;;;;;;23.80;14.57;;;;;;;2.64;100.00;98032.78;18301128;32;20415;-63
2022/12/02 00:40:37;;;;;;;26.50;15.17;;;;;;;2.69;100.00;98038.31;18301463;32;20440;-63
2022/12/02 00:50:39;;;;;;;29.03;16.50;;;;;;;2.71;100.00;98032.75;18287277;32;20076;-63
2022/12/02 01:00:42;;;;;;;31.03;16.53;;;;;;;2.71;100.00;98020.25;18300337;32;20046;-63
2022/12/02 01:10:45;;;;;;;27.67;15.47;;;;;;;2.70;100.00;98021.28;18299960;32;20369;-63
2022/12/02 01:20:47;;;;;;;29.00;15.07;;;;;;;2.70;100.00;98010.59;18299241;32;20069;-63
2022/12/02 01:30:50;;;;;;;31.80;16.93;;;;;;;2.68;100.00;98017.97;18298830;32;20383;-63
2022/12/02 01:40:52;;;;;;;29.23;15.83;;;;;;;2.70;100.00;98015.12;18284524;32;20130;-64
2022/12/02 01:50:56;;;;;;;29.00;16.20;;;;;;;2.77;100.00;98015.91;18284119;32;20058;-63
2022/12/02 02:00:58;;;;;;;29.20;16.27;;;;;;;2.75;100.00;98014.47;18297123;32;20102;-64
2022/12/02 02:11:00;;;;;;;31.83;16.53;;;;;;;2.71;100.00;98014.06;18296995;32;20080;-64
2022/12/02 02:21:03;;;;;;;28.03;15.53;;;;;;;2.71;100.00;98012.25;18296519;32;20062;-64
2022/12/02 02:31:06;;;;;;;33.20;18.33;;;;;;;2.70;100.00;98002.59;18295823;32;20084;-63
2022/12/02 02:41:09;;;;;;;32.33;17.07;;;;;;;2.79;100.00;98008.50;18281836;32;20091;-63
2022/12/02 02:51:13;;;;;;;33.13;16.87;;;;;;;2.76;100.00;97994.75;18280769;32;20058;-63
2022/12/02 03:01:26;;;;;;;34.30;18.17;;;;;;;2.72;100.00;97981.81;18294317;32;20476;-63
2022/12/02 03:11:30;;;;;;;28.93;16.00;;;;;;;2.76;100.00;97976.06;18294084;32;20062;-64
2022/12/02 03:21:33;;;;;;;31.20;17.03;;;;;;;2.75;100.00;97977.09;18280110;32;20552;-63
2022/12/02 03:31:36;;;;;;;32.47;16.97;;;;;;;2.77;100.00;97967.00;18294063;32;20085;-63
2022/12/02 03:41:39;;;;;;;36.10;18.13;;;;;;;2.77;100.00;97969.69;18293170;32;20086;-63
2022/12/02 03:51:42;;;;;;;32.47;17.50;;;;;;;2.71;100.00;97968.69;18291483;32;20091;-63
2022/12/02 04:01:44;;;;;;;31.53;18.10;;;;;;;2.69;100.00;97960.88;18293169;32;20065;-63
2022/12/02 04:11:47;;;;;;;33.60;17.87;;;;;;;2.63;100.00;97956.41;18302591;32;20054;-63
2022/12/02 04:21:49;;;;;;;37.10;19.27;;;;;;;2.61;100.00;97937.09;18302768;32;20070;-63
2022/12/02 04:31:52;;;;;;;31.40;18.07;;;;;;;2.61;100.00;97939.75;18302471;32;20373;-64
2022/12/02 04:41:54;;;;;;;30.07;17.23;;;;;;;2.62;100.00;97927.22;18301310;32;20058;-63
2022/12/02 04:51:57;;;;;;;36.87;19.10;;;;;;;2.71;100.00;97929.47;18300722;32;20076;-63
2022/12/02 05:01:59;;;;;;;30.37;17.03;;;;;;;2.73;100.00;97921.25;18286452;32;20054;-64
2022/12/02 05:12:01;;;;;;;39.40;19.97;;;;;;;2.69;100.00;97926.19;18273328;32;20055;-64
2022/12/02 05:22:04;;;;;;;33.83;17.53;;;;;;;2.80;100.00;97919.34;18298789;32;20394;-64
2022/12/02 05:32:06;;;;;;;35.20;17.70;;;;;;;2.72;100.00;97923.06;18298925;32;20053;-64
2022/12/02 05:42:13;;;;;;;33.10;17.00;;;;;;;2.76;100.00;97922.66;18298541;32;20100;-64
2022/12/02 05:52:22;;;;;;;32.20;16.67;;;;;;;2.74;100.00;97920.22;18298008;32;20073;-64
2022/12/02 06:02:35;;;;;;;37.07;18.20;;;;;;;2.75;100.00;97921.81;18297209;32;20058;-64
2022/12/02 06:12:43;;;;;;;35.53;16.83;;;;;;;2.80;100.00;97923.88;18297208;32;20375;-64
2022/12/02 06:22:45;;;;;;;36.07;18.50;;;;;;;2.76;100.00;97925.34;18296439;32;20062;-64
2022/12/02 06:32:54;;;;;;;30.67;15.67;;;;;;;2.74;100.00;97916.72;18295593;32;20058;-64
2022/12/02 06:42:58;;;;;;;28.53;16.73;;;;;;;2.74;100.00;97911.38;18295634;32;20124;-65
2022/12/02 06:53:17;;;;;;;30.53;15.27;;;;;;;2.76;100.00;97918.13;18295346;32;20102;-65
2022/12/02 07:03:29;;;;;;;33.00;16.97;;;;;;;2.80;100.00;97902.50;18294784;32;20426;-65
2022/12/02 07:13:32;;;;;;;26.90;14.90;;;;;;;2.77;100.00;97903.75;18294405;32;20073;-64
2022/12/02 07:23:36;;;;;;;31.07;16.07;;;;;;;2.83;100.00;97907.41;18279840;32;20489;-64
2022/12/02 07:33:38;;;;;;;32.27;15.87;;;;;;;2.86;100.00;97904.31;18293634;32;20114;-65
2022/12/02 07:43:41;;;;;;;28.80;15.90;;;;;;;2.85;100.00;97911.53;18303332;32;20046;-65
2022/12/02 07:53:44;;;;;;;35.67;19.37;;;;;;;2.91;100.00;97912.50;18290030;32;20082;-64
2022/12/02 08:03:46;;;;;;;34.03;16.63;;;;;;;2.93;100.00;97923.78;18303222;32;20488;-64
2022/12/02 08:13:49;;;;;;;33.57;16.90;;;;;;;2.91;100.00;97912.50;18302730;32;20426;-64
2022/12/02 08:23:51;;;;;;;32.93;16.30;;;;;;;2.95;100.00;97911.03;18302414;32;20069;-64
2022/12/02 08:33:54;;;;;;;36.50;17.83;;;;;;;3.03;100.00;97908.12;18288103;32;20420;-64
2022/12/02 08:43:58;;;;;;;31.97;16.37;;;;;;;3.08;100.00;97912.00;18300787;32;20050;-65
2022/12/02 08:54:01;;;;;;;31.60;15.67;;;;;;;3.19;100.00;97900.59;18286927;32;20058;-64
2022/12/02 09:04:05;;;;;;;25.10;13.53;;;;;;;3.35;100.00;97893.91;18235911;32;20055;-64
2022/12/02 09:14:07;;;;;;;30.00;14.00;;;;;;;3.48;100.00;97884.97;18236877;32;20074;-64
2022/12/02 09:24:10;;;;;;;26.03;14.00;;;;;;;3.71;100.00;97887.84;18236269;32;20063;-64
2022/12/02 09:34:13;;;;;;;30.30;14.83;;;;;;;3.76;100.00;97883.72;18236430;32;20092;-64
2022/12/02 09:44:16;;;;;;;33.87;15.17;;;;;;;3.68;100.00;97880.25;18235349;32;20066;-64
2022/12/02 09:54:19;;;;;;;29.00;15.17;;;;;;;3.67;100.00;97880.47;18235114;32;20091;-65
2022/12/02 10:04:22;;;;;;;35.13;16.87;;;;;;;3.67;100.00;97875.13;18294384;32;20475;-64
2022/12/02 10:14:25;;;;;;;29.83;14.87;;;;;;;3.76;100.00;97863.12;18283063;32;20386;-64
2022/12/02 10:24:36;;;;;;;32.47;17.03;;;;;;;3.72;100.00;97852.03;18282586;32;20053;-64
2022/12/02 10:34:39;;;;;;;28.50;15.20;;;;;;;3.92;100.00;97839.50;18296016;32;20058;-64
2022/12/02 10:44:44;;;;;;;30.57;16.63;;;;;;;4.09;100.00;97829.84;18295365;32;20069;-64
2022/12/02 10:54:51;;;;;;;28.07;14.67;;;;;;;4.20;100.00;97828.25;18281123;32;20080;-64
2022/12/02 11:04:54;;;;;;;30.80;14.57;;;;;;;4.28;100.00;97813.75;18294693;32;20138;-64
2022/12/02 11:14:57;;;;;;;25.30;14.83;;;;;;;4.38;100.00;97801.44;18267679;32;20438;-65
2022/12/02 11:25:01;;;;;;;30.73;16.30;;;;;;;4.60;100.00;97786.75;18293685;32;20054;-65
2022/12/02 11:35:15;;;;;;;29.93;15.47;;;;;;;4.83;100.00;97769.94;18293438;32;20116;-64
2022/12/02 11:45:20;;;;;;;29.87;16.13;;;;;;;5.01;100.00;97774.38;18293228;32;20106;-64
2022/12/02 11:55:33;;;;;;;30.10;15.90;;;;;;;5.12;98.20;97767.41;18279122;32;20434;-64
2022/12/02 12:05:38;;;;;;;28.07;15.57;;;;;;;5.15;95.38;97766.94;18279297;32;20091;-64
2022/12/02 12:15:52;;;;;;;28.17;13.63;;;;;;;4.90;96.88;97754.56;18291918;32;20054;-64
2022/12/02 12:25:56;;;;;;;;;;;;;;;4.85;97.07;97738.34;18296164;32;20058;-65
2022/12/02 12:36:00;;;;;;;28.23;14.43;;;;;;;5.01;96.07;97731.50;18302315;32;19950;-64
2022/12/02 12:46:03;;;;;;;25.07;12.83;;;;;;;4.89;95.08;97718.91;18301443;32;20426;-64
2022/12/02 12:56:06;;;;;;;26.83;13.77;;;;;;;4.84;95.43;97713.44;18300665;32;20087;-64
2022/12/02 13:06:09;;;;;;;31.80;16.77;;;;;;;4.94;92.91;97694.09;18286179;32;20062;-64
2022/12/02 13:16:12;;;;;;;31.47;15.07;;;;;;;5.02;94.44;97682.22;18299627;32;20058;-64
2022/12/02 13:26:15;;;;;;;28.77;15.13;;;;;;;5.18;93.39;97656.56;18285429;32;20406;-65
2022/12/02 13:36:18;;;;;;;27.63;13.83;;;;;;;5.32;93.86;97660.63;18298534;32;20063;-65
2022/12/02 13:46:21;;;;;;;30.23;14.77;;;;;;;5.33;94.62;97678.34;18284828;32;20055;-64
2022/12/02 13:56:24;;;;;;;27.77;14.70;;;;;;;5.24;92.93;97677.88;18297589;32;20152;-64
2022/12/02 14:06:27;;;;;;;24.13;14.17;;;;;;;4.97;94.45;97676.75;18297423;32;20077;-64
2022/12/02 14:16:30;;;;;;;29.17;14.13;;;;;;;4.86;95.58;97673.81;18296731;32;20050;-64
2022/12/02 14:26:33;;;;;;;28.83;15.17;;;;;;;4.78;97.50;97682.19;18296771;32;20055;-64
2022/12/02 14:36:36;;;;;;;30.47;15.23;;;;;;;4.76;97.40;97673.59;18295643;32;20088;-64
2022/12/02 14:46:44;;;;;;;27.13;13.80;;;;;;;4.72;97.19;97667.06;18294814;32;20141;-64
2022/12/02 14:56:46;;;;;;;27.83;14.50;;;;;;;4.50;97.70;97666.81;18295390;32;20483;-64
2022/12/02 15:06:49;;;;;;;30.10;14.53;;;;;;;4.37;98.37;97657.94;18294411;32;20058;-64
2022/12/02 15:16:53;;;;;;;30.30;15.73;;;;;;;4.23;100.00;97646.66;18294360;32;20081;-64
2022/12/02 15:26:56;;;;;;;33.67;16.37;;;;;;;4.12;100.00;97650.09;18293865;32;20426;-64
2022/12/02 15:36:59;;;;;;;27.87;14.83;;;;;;;4.00;100.00;97649.22;18293374;32;20058;-64
2022/12/02 15:47:02;;;;;;;34.50;17.40;;;;;;;3.92;100.00;97647.72;18279879;32;20114;-65
2022/12/02 15:57:05;;;;;;;30.60;15.80;;;;;;;3.84;100.00;97645.37;18293917;32;20058;-65
2022/12/02 16:07:08;;;;;;;32.13;17.30;;;;;;;3.80;100.00;97644.19;18289460;32;20090;-65
2022/12/02 16:17:12;;;;;;;29.60;15.60;;;;;;;3.79;100.00;97639.88;18301637;32;20087;-64
2022/12/02 16:27:14;;;;;;;27.30;14.43;;;;;;;3.66;100.00;97639.00;18288811;32;20113;-64
2022/12/02 16:37:20;;;;;;;28.67;14.77;;;;;;;3.59;100.00;97632.94;18302192;32;20058;-64
2022/12/02 16:47:22;;;;;;;;;;;;;;;3.55;100.00;97631.75;18301747;32;20393;-64
2022/12/02 16:57:24;;;;;;;26.87;13.40;;;;;;;3.41;100.00;97624.94;18301101;32;20015;-65
2022/12/02 17:07:28;;;;;;;28.33;15.87;;;;;;;3.30;100.00;97630.00;18285993;32;20054;-64
2022/12/02 17:17:31;;;;;;;28.10;14.73;;;;;;;3.30;100.00;97623.81;18299773;32;20061;-64
2022/12/02 17:27:50;;;;;;;28.47;14.50;;;;;;;3.19;100.00;97633.41;18300788;32;20054;-64
2022/12/02 17:37:52;;;;;;;28.10;14.53;;;;;;;3.13;100.00;97631.66;18299128;32;20110;-64
2022/12/02 17:47:55;;;;;;;32.23;16.37;;;;;;;3.05;100.00;97648.78;18284336;32;20105;-64
2022/12/02 17:57:57;;;;;;;32.23;15.77;;;;;;;3.07;100.00;97646.72;18284072;32;20096;-64
2022/12/02 18:07:59;;;;;;;38.93;19.40;;;;;;;3.12;100.00;97641.50;18297402;32;20098;-64
2022/12/02 18:18:03;;;;;;;33.77;18.13;;;;;;;3.12;100.00;97643.34;18297128;32;20143;-64
2022/12/02 18:28:06;;;;;;;37.97;17.73;;;;;;;3.11;100.00;97636.38;18295345;32;20098;-64
2022/12/02 18:38:08;;;;;;;34.13;17.23;;;;;;;3.08;100.00;97637.63;18295654;32;20088;-64
2022/12/02 18:48:11;;;;;;;38.37;17.77;;;;;;;3.01;100.00;97632.34;18295831;32;20125;-64
2022/12/02 18:58:16;;;;;;;30.30;15.93;;;;;;;3.02;100.00;97634.00;18294893;32;20058;-65
2022/12/02 19:08:20;;;;;;;31.70;16.30;;;;;;;3.04;100.00;97623.09;18294897;32;20106;-64
2022/12/02 19:18:23;;;;;;;29.17;15.60;;;;;;;3.05;100.00;97630.06;18294317;32;20093;-64
2022/12/02 19:28:26;;;;;;;26.10;15.03;;;;;;;2.97;100.00;97628.50;18294267;32;20058;-64
2022/12/02 19:38:28;;;;;;;25.83;14.13;;;;;;;2.91;100.00;97632.06;18288727;32;20078;-65
2022/12/02 19:48:31;;;;;;;25.10;14.13;;;;;;;2.90;100.00;97630.44;18304500;32;20386;-65
2022/12/02 19:58:35;;;;;;;26.17;13.90;;;;;;;2.78;100.00;97637.53;18303477;32;20114;-64
2022/12/02 20:08:38;;;;;;;23.53;13.30;;;;;;;2.69;100.00;97627.16;18303160;32;20058;-64
2022/12/02 20:18:41;;;;;;;27.37;13.77;;;;;;;2.62;100.00;97618.38;18303125;32;20120;-64
2022/12/02 20:28:44;;;;;;;23.23;13.23;;;;;;;2.62;100.00;97623.72;18288204;32;20106;-64
2022/12/02 20:38:47;;;;;;;20.60;10.80;;;;;;;2.58;100.00;97622.53;18287469;32;20054;-64
2022/12/02 20:48:52;;;;;;;25.23;13.82;;;;;;;2.60;100.00;97622.31;18300664;32;20054;-64
2022/12/02 20:58:58;;;;;;;22.50;12.53;;;;;;;2.58;100.00;97622.53;18274390;32;20463;-64
2022/12/02 21:09:01;;;;;;;25.67;13.43;;;;;;;2.56;100.00;97637.94;18300633;32;20058;-64
2022/12/02 21:19:04;;;;;;;20.70;12.57;;;;;;;2.49;100.00;97637.19;18299998;32;20378;-65
2022/12/02 21:29:08;;;;;;;24.23;12.57;;;;;;;2.37;100.00;97645.06;18299127;32;20065;-65
2022/12/02 21:39:11;;;;;;;24.20;12.83;;;;;;;2.42;100.00;97636.44;18298898;32;20117;-65
2022/12/02 21:49:14;;;;;;;25.10;13.73;;;;;;;2.48;100.00;97632.88;18298471;32;20076;-65
2022/12/02 21:59:17;;;;;;;27.23;13.67;;;;;;;2.49;100.00;97624.66;18297382;32;20089;-65
2022/12/02 22:09:20;;;;;;;25.23;13.27;;;;;;;2.50;100.00;97636.97;18297364;32;20501;-64
2022/12/02 22:19:23;;;;;;;29.07;13.00;;;;;;;2.48;100.00;97649.72;18283092;32;20415;-65
2022/12/02 22:29:26;;;;;;;26.23;13.33;;;;;;;2.50;100.00;97641.50;18296488;32;20077;-65
2022/12/02 22:39:28;;;;;;;24.30;14.50;;;;;;;2.53;100.00;97641.84;18295967;32;20467;-65
2022/12/02 22:49:31;;;;;;;21.53;12.03;;;;;;;2.50;100.00;97636.16;18295835;32;20080;-65
2022/12/02 22:59:34;;;;;;;22.70;12.23;;;;;;;2.54;100.00;97638.16;18294970;32;20063;-64
2022/12/02 23:09:36;;;;;;;24.93;13.07;;;;;;;2.53;100.00;97641.06;18293986;32;20045;-65
2022/12/02 23:19:40;;;;;;;24.80;13.40;;;;;;;2.50;100.00;97639.63;18294418;32;20081;-65
2022/12/02 23:29:42;;;;;;;29.20;13.60;;;;;;;2.51;100.00;97640.47;18294313;32;20055;-65
2022/12/02 23:39:45;;;;;;;27.53;14.03;;;;;;;2.47;100.00;97633.94;18280001;32;20489;-64
2022/12/02 23:49:48;;;;;;;25.03;13.43;;;;;;;2.45;100.00;97633.31;18292956;32;20091;-65
2022/12/02 23:59:51;;;;;;;27.30;13.40;;;;;;;2.50;100.00;97630.81;18292495;32;20481;-65
